Latest Weather Observations for Point Wilson

IDV60801

Issued at 8:02 am EST Wednesday 29 July 2015 (issued every 30 minutes, with the page automatically refreshed every 10 minutes)

About weather observations | Map of weather stations | Latest weather observations for VIC | Other Formats
Station Details ID: 087166 Name: POINT WILSON Lat: -38.10 Lon: 144.54 Height: 18.0 m
Data from the previous 72 hours. | See also: Recent months at Point Wilson
Date/Time
EST
Temp
°C
App
Temp
°C
Dew
Point
Rel
Hum
%
Delta-T
°C
Wind Press
QNH
hPa
Press
MSL
hPa
Rain
since 9 am
mm
Dir
 
Spd
km/h
Gust
km/h
Spd
kts
Gust
kts
29/08:00am - - - - - N 11 13 6 7 - - -
29/07:30am - - - - - NW 7 11 4 6 - - -
29/07:00am - - - - - NW 7 9 4 5 - - -
29/06:30am - - - - - WNW 7 9 4 5 - - -
29/06:00am - - - - - WNW 9 11 5 6 - - -
29/05:30am - - - - - N 6 9 3 5 - - -
29/05:00am - - - - - CALM 0 0 0 0 - - -
29/04:30am - - - - - CALM 0 0 0 0 - - -
29/04:00am - - - - - CALM 0 0 0 0 - - -
29/03:30am - - - - - CALM 0 0 0 0 - - -
29/03:00am - - - - - NW 2 6 1 3 - - -
29/02:30am - - - - - W 6 7 3 4 - - -
29/02:00am - - - - - W 7 9 4 5 - - -
29/01:30am - - - - - NNW 7 9 4 5 - - -
29/01:00am - - - - - N 9 11 5 6 - - -
29/12:30am - - - - - NNW 9 11 5 6 - - -
29/12:00am - - - - - NNW 9 9 5 5 - - -
 
Date/Time
EST
Temp
°C
App
Temp
°C
Dew
Point
Rel
Hum
%
Delta-T
°C
Wind Press
QNH
hPa
Press
MSL
hPa
Rain
since 9 am
mm
Dir
 
Spd
km/h
Gust
km/h
Spd
kts
Gust
kts
28/11:30pm - - - - - CALM 0 6 0 3 - - -
28/11:00pm - - - - - WNW 7 9 4 5 - - -
28/10:30pm - - - - - WNW 9 13 5 7 - - -
28/10:00pm - - - - - WNW 13 15 7 8 - - -
28/09:30pm - - - - - W 19 22 10 12 - - -
28/09:00pm - - - - - W 20 24 11 13 - - -
28/08:30pm - - - - - W 17 19 9 10 - - -
28/08:00pm - - - - - WSW 17 22 9 12 - - -
28/07:30pm - - - - - SW 6 7 3 4 - - -
28/07:00pm - - - - - WNW 17 19 9 10 - - -
28/06:30pm - - - - - NW 11 15 6 8 - - -
28/06:00pm - - - - - W 13 17 7 9 - - -
28/05:30pm - - - - - WSW 13 15 7 8 - - -
28/05:00pm - - - - - WSW 17 19 9 10 - - -
28/04:30pm - - - - - WSW 11 17 6 9 - - -
28/04:00pm - - - - - W 15 17 8 9 - - -
28/03:30pm - - - - - WSW 20 24 11 13 - - -
28/03:00pm - - - - - WSW 20 22 11 12 - - -
28/02:30pm - - - - - WSW 17 20 9 11 - - -
28/02:00pm - - - - - WSW 19 20 10 11 - - -
28/01:30pm - - - - - WSW 20 22 11 12 - - -
28/01:00pm - - - - - WSW 20 22 11 12 - - -
28/12:30pm - - - - - SW 19 20 10 11 - - -
28/12:00pm - - - - - WSW 17 19 9 10 - - -
28/11:30am - - - - - WSW 15 19 8 10 - - -
28/11:00am - - - - - WSW 15 19 8 10 - - -
28/10:30am - - - - - W 20 28 11 15 - - -
28/10:00am - - - - - WSW 30 33 16 18 - - -
28/09:30am - - - - - WSW 26 32 14 17 - - -
28/09:00am - - - - - W 22 28 12 15 - - -
28/08:30am - - - - - W 24 30 13 16 - - -
28/08:00am - - - - - W 24 28 13 15 - - -
28/07:30am - - - - - W 26 28 14 15 - - -
28/07:00am - - - - - W 24 30 13 16 - - -
28/06:30am - - - - - W 28 33 15 18 - - -
28/06:00am - - - - - W 26 30 14 16 - - -
28/05:30am - - - - - W 22 32 12 17 - - -
28/05:00am - - - - - W 26 32 14 17 - - -
28/04:30am - - - - - W 28 32 15 17 - - -
28/04:00am - - - - - WSW 28 33 15 18 - - -
28/03:30am - - - - - W 26 33 14 18 - - -
28/03:00am - - - - - W 26 32 14 17 - - -
28/02:30am - - - - - W 28 32 15 17 - - -
28/02:00am - - - - - W 28 33 15 18 - - -
28/01:30am - - - - - W 28 37 15 20 - - -
28/01:00am - - - - - W 30 35 16 19 - - -
28/12:30am - - - - - W 32 37 17 20 - - -
28/12:00am - - - - - W 30 35 16 19 - - -
 
Date/Time
EST
Temp
°C
App
Temp
°C
Dew
Point
Rel
Hum
%
Delta-T
°C
Wind Press
QNH
hPa
Press
MSL
hPa
Rain
since 9 am
mm
Dir
 
Spd
km/h
Gust
km/h
Spd
kts
Gust
kts
27/11:30pm - - - - - W 28 33 15 18 - - -
27/11:00pm - - - - - WNW 26 32 14 17 - - -
27/10:30pm - - - - - WNW 26 32 14 17 - - -
27/10:00pm - - - - - WNW 26 30 14 16 - - -
27/09:30pm - - - - - W 30 35 16 19 - - -
27/09:00pm - - - - - W 28 33 15 18 - - -
27/08:30pm - - - - - W 32 37 17 20 - - -
27/08:00pm - - - - - W 28 33 15 18 - - -
27/07:30pm - - - - - WNW 17 20 9 11 - - -
27/07:00pm - - - - - W 19 22 10 12 - - -
27/06:30pm - - - - - W 17 19 9 10 - - -
27/06:00pm - - - - - W 19 20 10 11 - - -
27/05:30pm - - - - - W 20 24 11 13 - - -
27/05:00pm - - - - - W 24 28 13 15 - - -
27/04:30pm - - - - - W 30 35 16 19 - - -
27/04:00pm - - - - - W 32 39 17 21 - - -
27/03:30pm - - - - - W 28 35 15 19 - - -
27/03:00pm - - - - - W 30 37 16 20 - - -
27/02:30pm - - - - - W 32 39 17 21 - - -
27/02:00pm - - - - - W 32 39 17 21 - - -
27/01:30pm - - - - - W 32 37 17 20 - - -
27/01:00pm - - - - - W 32 37 17 20 - - -
27/12:30pm - - - - - WSW 30 35 16 19 - - -
27/12:00pm - - - - - W 28 35 15 19 - - -
27/11:30am - - - - - W 32 35 17 19 - - -
27/11:00am - - - - - W 28 33 15 18 - - -
27/10:30am - - - - - W 32 35 17 19 - - -
27/10:00am - - - - - W 32 37 17 20 - - -
27/09:30am - - - - - W 35 43 19 23 - - -
27/09:00am - - - - - WNW 32 37 17 20 - - -
27/08:30am - - - - - WNW 30 39 16 21 - - -
27/08:00am - - - - - WNW 26 32 14 17 - - -
27/07:30am - - - - - W 30 39 16 21 - - -
27/07:00am - - - - - W 32 37 17 20 - - -
27/06:30am - - - - - WNW 28 35 15 19 - - -
27/06:00am - - - - - WNW 33 39 18 21 - - -
27/05:30am - - - - - WNW 32 35 17 19 - - -
27/05:00am - - - - - WNW 32 37 17 20 - - -
27/04:30am - - - - - W 39 48 21 26 - - -
27/04:00am - - - - - W 41 46 22 25 - - -
27/03:30am - - - - - W 35 44 19 24 - - -
27/03:00am - - - - - WNW 30 35 16 19 - - -
27/02:30am - - - - - WNW 33 41 18 22 - - -
27/02:00am - - - - - WNW 30 37 16 20 - - -
27/01:30am - - - - - WNW 30 35 16 19 - - -
27/01:00am - - - - - W 39 46 21 25 - - -
27/12:30am - - - - - W 35 44 19 24 - - -
27/12:00am - - - - - WNW 35 41 19 22 - - -
 
Date/Time
EST
Temp
°C
App
Temp
°C
Dew
Point
Rel
Hum
%
Delta-T
°C
Wind Press
QNH
hPa
Press
MSL
hPa
Rain
since 9 am
mm
Dir
 
Spd
km/h
Gust
km/h
Spd
kts
Gust
kts
26/11:30pm - - - - - W 43 50 23 27 - - -
26/11:00pm - - - - - W 41 48 22 26 - - -
26/10:30pm - - - - - W 39 46 21 25 - - -
26/10:00pm - - - - - W 43 52 23 28 - - -
26/09:30pm - - - - - W 39 46 21 25 - - -
26/09:00pm - - - - - W 39 46 21 25 - - -
26/08:30pm - - - - - W 43 52 23 28 - - -
26/08:00pm - - - - - W 37 54 20 29 - - -
26/07:58pm - - - - - W 35 54 19 29 - - -
26/07:30pm - - - - - W 43 50 23 27 - - -
26/07:00pm - - - - - WNW 35 48 19 26 - - -
26/06:30pm - - - - - W 41 50 22 27 - - -
26/06:00pm - - - - - W 39 54 21 29 - - -
26/05:30pm - - - - - W 46 59 25 32 - - -
26/05:00pm - - - - - W 46 57 25 31 - - -
26/04:30pm - - - - - W 50 63 27 34 - - -
26/04:18pm - - - - - W 46 65 25 35 - - -
26/04:00pm - - - - - W 43 54 23 29 - - -
26/03:30pm - - - - - WSW 44 50 24 27 - - -
26/03:19pm - - - - - WSW 46 83 25 45 - - -
26/03:12pm - - - - - W 65 83 35 45 - - -
26/03:11pm - - - - - W 69 83 37 45 - - -
26/03:01pm - - - - - W 48 69 26 37 - - -
26/03:00pm - - - - - W 48 63 26 34 - - -
26/02:30pm - - - - - W 39 48 21 26 - - -
26/02:00pm - - - - - W 41 54 22 29 - - -
26/01:48pm - - - - - WNW 52 70 28 38 - - -
26/01:30pm - - - - - W 46 61 25 33 - - -
26/01:03pm - - - - - W 54 72 29 39 - - -
26/01:00pm - - - - - W 50 63 27 34 - - -
26/12:35pm - - - - - W 52 72 28 39 - - -
26/12:30pm - - - - - W 52 67 28 36 - - -
26/12:11pm - - - - - W 50 76 27 41 - - -
26/12:00pm - - - - - W 43 50 23 27 - - -
26/11:50am - - - - - W 43 63 23 34 - - -
26/11:41am - - - - - W 41 54 22 29 - - -
26/11:30am - - - - - W 61 70 33 38 - - -
26/11:18am - - - - - W 56 74 30 40 - - -
26/11:00am - - - - - WNW 54 69 29 37 - - -
26/10:48am - - - - - W 57 82 31 44 - - -
26/10:36am - - - - - WNW 44 63 24 34 - - -
26/10:30am - - - - - WNW 39 48 21 26 - - -
26/10:00am - - - - - W 56 80 30 43 - - -
26/09:51am - - - - - W 50 80 27 43 - - -
26/09:30am - - - - - WNW 46 61 25 33 - - -
26/09:00am - - - - - WNW 48 61 26 33 - - -
26/08:30am - - - - - WNW 46 57 25 31 - - -

Other Formats:

Comma delimited format used in spreadsheet applications
http://www.bom.gov.au/fwo/IDV60801/IDV60801.94847.axf

JavaScript Object Notation format (JSON) in row-major order
http://www.bom.gov.au/fwo/IDV60801/IDV60801.94847.json